Time;durP1;ratioP1;P1;durP2;ratioP2;P2;SDS_P1;SDS_P2;PMS_P1;PMS_P2;Temp;Humidity;BMP_temperature;BMP_pressure;BME280_temperature;BME280_humidity;BME280_pressure;Samples;Min_cycle;Max_cycle;Signal;HPM_P1;HPM_P2
2023/07/05 00:00:26;;;;;;;;;;;;;;;23.38;47.93;100871.16;4985438;28;3970;-65
2023/07/05 00:02:52;;;;;;;;;;;;;;;23.38;47.87;100877.66;4985828;28;4171;-65
2023/07/05 00:05:19;;;;;;;;;;;;;;;23.38;48.21;100874.78;4986136;28;4152;-65
2023/07/05 00:07:45;;;;;;;;;;;;;;;23.37;48.33;100873.31;4986880;28;4189;-64
2023/07/05 00:10:12;;;;;;;;;;;;;;;23.38;48.28;100866.09;4991044;28;6273;-65
2023/07/05 00:12:38;;;;;;;;;;;;;;;23.37;48.17;100864.63;4984524;28;4070;-65
2023/07/05 00:15:05;;;;;;;;;;;;;;;23.36;48.20;100857.38;4989257;28;4193;-65
2023/07/05 00:17:32;;;;;;;;;;;;;;;23.36;48.33;100859.53;4988521;28;4346;-65
2023/07/05 00:19:59;;;;;;;;;;;;;;;23.35;47.95;100853.00;4981781;28;4154;-65
2023/07/05 00:22:28;;;;;;;;;;;;;;;23.35;48.30;100853.00;4984756;28;4016;-65
2023/07/05 00:24:55;;;;;;;;;;;;;;;23.36;48.14;100859.53;4985354;28;4025;-65
2023/07/05 00:27:22;;;;;;;;;;;;;;;23.35;48.33;100846.50;4992188;28;4181;-65
2023/07/05 00:29:48;;;;;;;;;;;;;;;23.34;48.30;100845.75;4989707;28;4083;-65
2023/07/05 00:32:15;;;;;;;;;;;;;;;23.34;48.36;100845.00;4986821;28;3992;-65
2023/07/05 00:34:41;;;;;;;;;;;;;;;23.34;48.25;100845.00;4986333;28;3991;-65
2023/07/05 00:37:08;;;;;;;;;;;;;;;23.33;48.18;100841.38;4985757;28;4370;-65
2023/07/05 00:39:34;;;;;;;;;;;;;;;23.31;48.19;100829.75;4993217;28;4494;-65
2023/07/05 00:42:00;;;;;;;;;;;;;;;23.34;48.41;100828.44;4986376;28;3952;-65
2023/07/05 00:44:28;;;;;;;;;;;;;;;23.33;48.39;100832.72;4986877;28;4305;-65
2023/07/05 00:46:56;;;;;;;;;;;;;;;23.32;48.19;100821.81;4999479;28;4396;-65
2023/07/05 00:49:23;;;;;;;;;;;;;;;23.31;48.46;100829.75;5000993;28;4017;-65
2023/07/05 00:51:54;;;;;;;;;;;;;;;23.31;48.53;100823.25;4988322;28;4278;-65
2023/07/05 00:54:22;;;;;;;;;;;;;;;23.31;48.42;100823.25;4987930;28;4155;-65
2023/07/05 00:56:51;;;;;;;;;;;;;;;23.30;48.57;100813.84;4985733;28;4053;-65
2023/07/05 00:59:17;;;;;;;;;;;;;;;23.29;48.49;100814.50;4991833;28;4123;-65
2023/07/05 01:01:43;;;;;;;;;;;;;;;23.28;48.57;100793.53;4986076;28;4238;-65
2023/07/05 01:04:28;;;;;;;;;;;;;;;23.29;48.51;100805.84;5000462;28;4379;-65
2023/07/05 01:06:54;;;;;;;;;;;;;;;23.27;48.58;100809.38;4997811;28;4131;-65
2023/07/05 01:09:21;;;;;;;;;;;;;;;23.28;48.66;100802.22;4985326;28;4069;-65
2023/07/05 01:11:51;;;;;;;;;;;;;;;23.28;48.58;100799.31;5001999;28;4220;-65
2023/07/05 01:14:19;;;;;;;;;;;;;;;23.28;48.34;100790.66;4996049;28;4911;-65
2023/07/05 01:17:02;;;;;;;;;;;;;;;23.29;48.42;100791.38;4986743;28;4155;-66
2023/07/05 01:19:44;;;;;;;;;;;;;;;23.27;48.64;100777.59;5002354;28;4151;-65
2023/07/05 01:22:12;;;;;;;;;;;;;;;23.29;48.46;100777.69;4985995;28;4265;-65
2023/07/05 01:24:48;;;;;;;;;;;;;;;23.27;48.46;100773.97;4973095;28;4158;-65
2023/07/05 01:27:23;;;;;;;;;;;;;;;23.27;48.66;100765.31;5001056;28;4506;-65
2023/07/05 01:30:08;;;;;;;;;;;;;;;23.26;48.66;100764.59;4997991;28;4238;-64
2023/07/05 01:32:37;;;;;;;;;;;;;;;23.25;48.68;100756.56;4986165;28;6789;-65
2023/07/05 01:35:05;;;;;;;;;;;;;;;23.26;48.71;100758.81;4987933;28;4008;-65
2023/07/05 01:37:31;;;;;;;;;;;;;;;23.25;48.73;100757.34;4981061;28;4185;-65
2023/07/05 01:39:58;;;;;;;;;;;;;;;23.26;48.79;100750.13;5004189;28;4118;-64
2023/07/05 01:42:28;;;;;;;;;;;;;;;23.26;48.76;100753.03;4985296;28;4152;-65
2023/07/05 01:44:55;;;;;;;;;;;;;;;23.26;48.62;100750.13;4990710;28;4093;-66
2023/07/05 01:47:24;;;;;;;;;;;;;;;23.27;48.39;100750.88;4988578;28;4278;-66
2023/07/05 01:50:11;;;;;;;;;;;;;;;23.26;48.67;100744.34;4995284;28;4233;-65
2023/07/05 01:52:42;;;;;;;;;;;;;;;23.25;48.89;100742.91;4994242;28;6483;-65
2023/07/05 01:55:13;;;;;;;;;;;;;;;23.26;48.73;100747.25;4968038;28;4359;-65
2023/07/05 01:57:41;;;;;;;;;;;;;;;23.25;48.76;100742.91;4988720;28;4248;-65
2023/07/05 02:00:08;;;;;;;;;;;;;;;23.25;48.81;100742.91;4992545;28;4129;-65
2023/07/05 02:02:39;;;;;;;;;;;;;;;23.24;48.44;100747.19;4988229;28;4191;-66
2023/07/05 02:05:07;;;;;;;;;;;;;;;23.24;48.69;100747.19;4993273;28;4947;-66
2023/07/05 02:07:33;;;;;;;;;;;;;;;23.25;48.69;100739.25;4996320;28;4210;-66
2023/07/05 02:10:00;;;;;;;;;;;;;;;23.25;48.73;100742.13;4984338;28;4301;-66
2023/07/05 02:12:27;;;;;;;;;;;;;;;23.24;48.76;100732.00;4986212;28;4250;-66
2023/07/05 02:14:54;;;;;;;;;;;;;;;23.23;48.88;100731.28;4987673;28;4477;-65
2023/07/05 02:17:21;;;;;;;;;;;;;;;23.23;48.76;100730.50;4987711;28;4179;-66
2023/07/05 02:19:51;;;;;;;;;;;;;;;23.23;48.76;100731.28;4999846;28;4297;-66
2023/07/05 02:22:19;;;;;;;;;;;;;;;23.23;48.86;100725.50;4989679;28;4148;-66
2023/07/05 02:24:46;;;;;;;;;;;;;;;23.22;48.54;100715.34;5009333;28;4022;-65
2023/07/05 02:27:12;;;;;;;;;;;;;;;23.23;48.53;100705.28;4992011;28;4135;-66
2023/07/05 02:29:39;;;;;;;;;;;;;;;23.23;48.63;100708.16;4991399;28;4140;-65
2023/07/05 02:32:08;;;;;;;;;;;;;;;23.23;48.75;100710.28;5007974;28;4312;-66
2023/07/05 02:34:37;;;;;;;;;;;;;;;23.21;48.70;100703.03;4993148;28;3956;-65
2023/07/05 02:37:03;;;;;;;;;;;;;;;23.21;48.90;100697.28;5005531;28;3987;-66
2023/07/05 02:39:30;;;;;;;;;;;;;;;23.21;48.65;100693.66;4990047;28;4245;-66
2023/07/05 02:41:56;;;;;;;;;;;;;;;23.21;48.91;100682.09;4990353;28;4167;-66
2023/07/05 02:44:23;;;;;;;;;;;;;;;23.20;48.95;100678.47;4991167;28;4138;-66
2023/07/05 02:46:49;;;;;;;;;;;;;;;23.20;48.62;100666.16;4991137;28;4345;-66
2023/07/05 02:49:16;;;;;;;;;;;;;;;23.20;48.85;100666.91;4988042;28;4153;-65
2023/07/05 02:51:42;;;;;;;;;;;;;;;23.20;48.82;100658.25;4990868;28;4165;-65
2023/07/05 02:54:09;;;;;;;;;;;;;;;23.18;48.80;100646.63;4992702;28;4144;-66
2023/07/05 02:56:35;;;;;;;;;;;;;;;23.19;48.94;100644.47;5004427;28;4182;-66
2023/07/05 02:59:01;;;;;;;;;;;;;;;23.19;48.55;100635.81;4996498;28;4229;-66
2023/07/05 03:01:28;;;;;;;;;;;;;;;23.19;48.59;100632.91;4993498;28;4094;-65
2023/07/05 03:03:55;;;;;;;;;;;;;;;23.19;48.76;100638.69;4992784;28;3972;-65
2023/07/05 03:06:21;;;;;;;;;;;;;;;23.18;48.68;100640.84;4994645;28;4088;-66
2023/07/05 03:08:48;;;;;;;;;;;;;;;23.19;48.72;100639.44;4997463;28;4104;-66
2023/07/05 03:11:14;;;;;;;;;;;;;;;23.19;48.63;100638.69;4985300;28;4031;-66
2023/07/05 03:13:41;;;;;;;;;;;;;;;23.19;48.50;100638.69;4990710;28;4165;-66
2023/07/05 03:16:07;;;;;;;;;;;;;;;23.18;48.58;100642.97;4990004;28;4140;-66
2023/07/05 03:18:34;;;;;;;;;;;;;;;23.17;48.57;100642.25;4992077;28;4006;-66
2023/07/05 03:21:00;;;;;;;;;;;;;;;23.17;48.50;100647.28;4991859;28;4105;-66
2023/07/05 03:23:27;;;;;;;;;;;;;;;23.16;48.56;100649.44;4987018;28;4176;-66
2023/07/05 03:25:56;;;;;;;;;;;;;;;23.19;48.57;100639.44;4985481;28;4019;-65
2023/07/05 03:28:24;;;;;;;;;;;;;;;23.20;48.42;100651.72;4998884;28;4183;-66
2023/07/05 03:30:54;;;;;;;;;;;;;;;23.14;48.77;100637.09;5004933;28;4226;-66
2023/07/05 03:33:21;;;;;;;;;;;;;;;23.13;48.80;100638.50;5006962;28;4120;-65
2023/07/05 03:35:54;;;;;;;;;;;;;;;23.13;48.81;100621.91;4991799;28;3987;-66
2023/07/05 03:38:22;;;;;;;;;;;;;;;23.15;48.83;100624.13;5004848;28;4151;-65
2023/07/05 03:40:55;;;;;;;;;;;;;;;23.15;48.99;100615.47;4988643;28;4205;-66
2023/07/05 03:43:21;;;;;;;;;;;;;;;23.14;49.18;100626.28;4988441;28;4081;-66
2023/07/05 03:45:47;;;;;;;;;;;;;;;23.14;49.15;100611.84;4990595;28;4137;-66
2023/07/05 03:48:14;;;;;;;;;;;;;;;23.13;49.35;100613.22;5004479;28;4370;-66
2023/07/05 03:50:40;;;;;;;;;;;;;;;23.13;49.20;100606.72;4987739;28;4199;-66
2023/07/05 03:53:07;;;;;;;;;;;;;;;23.14;49.10;100608.22;4988836;28;4168;-66
2023/07/05 03:55:34;;;;;;;;;;;;;;;23.12;49.39;100611.78;4986841;28;4026;-66
2023/07/05 03:58:00;;;;;;;;;;;;;;;23.13;49.32;100613.22;4991612;28;3992;-66
2023/07/05 04:00:26;;;;;;;;;;;;;;;23.12;49.26;100605.25;4988979;28;4232;-66
2023/07/05 04:02:53;;;;;;;;;;;;;;;23.12;49.02;100611.03;4992173;28;4099;-66
2023/07/05 04:05:20;;;;;;;;;;;;;;;23.12;49.12;100605.25;4988197;28;4144;-66
2023/07/05 04:07:46;;;;;;;;;;;;;;;23.11;49.05;100607.41;4993657;28;3996;-73
2023/07/05 04:10:12;;;;;;;;;;;;;;;23.12;48.85;100605.25;4984927;28;4152;-65
2023/07/05 04:12:39;;;;;;;;;;;;;;;23.10;48.91;100596.53;4985627;28;4241;-65
2023/07/05 04:15:05;;;;;;;;;;;;;;;23.10;48.83;100593.66;4981844;28;4139;-64
2023/07/05 04:17:32;;;;;;;;;;;;;;;23.11;48.77;100583.56;4989124;28;4314;-65
2023/07/05 04:19:58;;;;;;;;;;;;;;;23.09;48.64;100574.81;4992904;28;4326;-66
2023/07/05 04:22:25;;;;;;;;;;;;;;;23.10;48.58;100574.16;4989369;28;4100;-65
2023/07/05 04:24:51;;;;;;;;;;;;;;;23.10;48.39;100570.53;4983845;28;4073;-65
2023/07/05 04:27:17;;;;;;;;;;;;;;;23.10;48.18;100573.44;4984647;28;4080;-65
2023/07/05 04:29:44;;;;;;;;;;;;;;;23.09;48.05;100578.47;4989335;28;4292;-65
2023/07/05 04:32:10;;;;;;;;;;;;;;;23.09;47.92;100566.16;4985641;28;4173;-65
2023/07/05 04:34:40;;;;;;;;;;;;;;;23.09;48.08;100560.38;4986975;28;4314;-65
2023/07/05 04:37:06;;;;;;;;;;;;;;;23.10;47.83;100561.88;4989349;28;4240;-65
2023/07/05 04:39:32;;;;;;;;;;;;;;;23.10;47.76;100556.09;4989915;28;4181;-65
2023/07/05 04:41:59;;;;;;;;;;;;;;;23.09;47.72;100554.59;4988969;28;4122;-65
2023/07/05 04:44:25;;;;;;;;;;;;;;;23.09;48.09;100549.59;4990516;28;4238;-65
2023/07/05 04:46:52;;;;;;;;;;;;;;;23.09;47.59;100546.72;4991170;28;4075;-65
2023/07/05 04:49:18;;;;;;;;;;;;;;;23.09;47.54;100548.84;4987982;28;4329;-65
2023/07/05 04:51:44;;;;;;;;;;;;;;;23.10;47.60;100547.44;4987402;28;4166;-65
2023/07/05 04:54:12;;;;;;;;;;;;;;;23.08;47.34;100542.31;4984746;28;4097;-65
2023/07/05 04:56:39;;;;;;;;;;;;;;;23.07;47.68;100545.91;4986597;28;4260;-65
2023/07/05 04:59:05;;;;;;;;;;;;;;;23.08;47.57;100535.81;4990067;28;4033;-65
2023/07/05 05:01:31;;;;;;;;;;;;;;;23.07;47.41;100532.19;4989641;28;5234;-66
2023/07/05 05:03:58;;;;;;;;;;;;;;;23.08;47.30;100538.72;4989271;28;4093;-66
2023/07/05 05:06:24;;;;;;;;;;;;;;;23.09;47.51;100535.16;4983973;28;3981;-65
2023/07/05 05:08:51;;;;;;;;;;;;;;;23.09;47.27;100537.28;4986090;28;4377;-65
2023/07/05 05:11:17;;;;;;;;;;;;;;;23.08;47.28;100535.81;4989316;28;4014;-65
2023/07/05 05:13:44;;;;;;;;;;;;;;;23.06;46.82;100536.50;4986246;28;4006;-65
2023/07/05 05:16:10;;;;;;;;;;;;;;;23.05;46.90;100529.25;4987241;28;4139;-65
2023/07/05 05:18:40;;;;;;;;;;;;;;;23.05;46.65;100519.84;4988645;28;4161;-65
2023/07/05 05:21:06;;;;;;;;;;;;;;;23.04;46.47;100524.88;4985943;28;4080;-65
2023/07/05 05:23:33;;;;;;;;;;;;;;;23.05;46.45;100519.84;4987425;28;5337;-65
2023/07/05 05:25:59;;;;;;;;;;;;;;;23.04;45.98;100524.88;5002070;28;4168;-66
2023/07/05 05:28:26;;;;;;;;;;;;;;;23.02;46.12;100521.19;4984024;28;4143;-68
2023/07/05 05:30:59;;;;;;;;;;;;;;;22.82;46.50;100513.38;4988010;28;3953;-69
2023/07/05 05:33:26;;;;;;;;;;;;;;;22.95;46.51;100509.44;4984864;28;4145;-69
2023/07/05 05:35:52;;;;;;;;;;;;;;;23.05;46.29;100490.97;4986207;28;4145;-69
2023/07/05 05:38:18;;;;;;;;;;;;;;;23.16;45.75;100501.41;4978236;28;4134;-70
2023/07/05 05:40:46;;;;;;;;;;;;;;;23.19;45.73;100485.59;4983690;28;4078;-72
2023/07/05 05:43:12;;;;;;;;;;;;;;;23.26;45.71;100475.69;4985764;28;4189;-71
2023/07/05 05:45:38;;;;;;;;;;;;;;;23.28;45.52;100461.31;4985498;28;4130;-69
2023/07/05 05:48:05;;;;;;;;;;;;;;;23.34;46.05;100475.94;4986688;28;4145;-71
2023/07/05 05:50:32;;;;;;;;;;;;;;;23.31;45.92;100465.72;4983966;28;4197;-71
2023/07/05 05:52:58;;;;;;;;;;;;;;;23.33;45.63;100468.66;4993573;28;4506;-72
2023/07/05 05:55:25;;;;;;;;;;;;;;;23.29;45.77;100451.22;4984230;28;4158;-73
2023/07/05 05:57:51;;;;;;;;;;;;;;;23.32;45.68;100455.66;4981757;28;4128;-71
2023/07/05 06:00:17;;;;;;;;;;;;;;;23.45;45.27;100445.16;4982877;28;4318;-71
2023/07/05 06:02:44;;;;;;;;;;;;;;;23.48;44.92;100440.16;4986898;28;4189;-71
2023/07/05 06:05:11;;;;;;;;;;;;;;;23.57;44.80;100436.06;4988650;28;4330;-71
2023/07/05 06:07:37;;;;;;;;;;;;;;;23.55;44.46;100424.47;4984151;28;4203;-71
2023/07/05 06:10:04;;;;;;;;;;;;;;;23.96;44.51;100428.41;4987964;28;4309;-70
2023/07/05 06:12:30;;;;;;;;;;;;;;;24.12;44.23;100417.25;4990683;28;4114;-70
2023/07/05 06:14:57;;;;;;;;;;;;;;;24.15;44.02;100412.97;4986001;28;4241;-70
2023/07/05 06:17:23;;;;;;;;;;;;;;;24.22;44.00;100411.69;4985788;28;4306;-69
2023/07/05 06:19:50;;;;;;;;;;;;;;;24.23;43.94;100407.41;4987096;28;4004;-69
2023/07/05 06:22:16;;;;;;;;;;;;;;;24.29;43.95;100408.94;4986342;28;4073;-68
2023/07/05 06:24:43;;;;;;;;;;;;;;;24.04;43.65;100399.69;4985962;28;4361;-67
2023/07/05 06:27:09;;;;;;;;;;;;;;;23.56;44.50;100402.81;4989457;28;4120;-70
2023/07/05 06:29:36;;;;;;;;;;;;;;;23.67;44.64;100387.22;4998012;28;4267;-70
2023/07/05 06:32:02;;;;;;;;;;;;;;;23.61;44.60;100390.66;4994994;28;4281;-71
2023/07/05 06:34:29;;;;;;;;;;;;;;;23.54;44.81;100382.53;4989183;28;4074;-71
2023/07/05 06:36:55;;;;;;;;;;;;;;;23.56;44.78;100385.47;4990158;28;4364;-72
2023/07/05 06:39:21;;;;;;;;;;;;;;;23.56;44.61;100379.69;4984002;28;3981;-72
2023/07/05 06:41:48;;;;;;;;;;;;;;;23.54;44.71;100376.75;4989897;28;3986;-69
2023/07/05 06:44:14;;;;;;;;;;;;;;;23.52;44.96;100373.81;4985796;28;4028;-71
2023/07/05 06:46:41;;;;;;;;;;;;;;;23.52;45.00;100373.81;4989135;28;4083;-70
2023/07/05 06:49:07;;;;;;;;;;;;;;;23.55;44.87;100372.47;4987810;28;4510;-69
2023/07/05 06:51:34;;;;;;;;;;;;;;;23.74;44.48;100377.28;4993380;28;4149;-70
2023/07/05 06:54:00;;;;;;;;;;;;;;;23.71;45.07;100389.44;4985166;28;3985;-71
2023/07/05 06:56:26;;;;;;;;;;;;;;;23.93;44.27;100406.66;4995679;28;4043;-70
2023/07/05 06:58:53;;;;;;;;;;;;;;;23.96;43.96;100397.34;4990519;28;4286;-70
2023/07/05 07:01:19;;;;;;;;;;;;;;;23.82;44.06;100389.06;4992394;28;4135;-70
2023/07/05 07:03:46;;;;;;;;;;;;;;;23.76;44.37;100396.84;4993794;28;3984;-71
2023/07/05 07:06:12;;;;;;;;;;;;;;;23.73;44.57;100403.97;4990113;28;4532;-71
2023/07/05 07:08:39;;;;;;;;;;;;;;;23.71;44.79;100389.44;4987948;28;4195;-71
2023/07/05 07:11:05;;;;;;;;;;;;;;;23.67;44.98;100395.88;4984197;28;4137;-69
2023/07/05 07:13:32;;;;;;;;;;;;;;;23.67;44.64;100390.09;4992201;28;3989;-66
2023/07/05 07:16:03;;;;;;;;;;;;;;;23.85;44.83;100378.28;4985587;28;4139;-72
2023/07/05 07:18:30;;;;;;;;;;;;;;;24.06;44.33;100376.59;4990074;28;4136;-71
2023/07/05 07:20:56;;;;;;;;;;;;;;;24.10;44.32;100376.72;4988413;28;4330;-70
2023/07/05 07:23:23;;;;;;;;;;;;;;;24.09;44.36;100377.38;4987796;28;4526;-71
2023/07/05 07:25:56;;;;;;;;;;;;;;;24.05;44.17;100369.34;4985015;28;4372;-71
2023/07/05 07:28:25;;;;;;;;;;;;;;;24.19;44.38;100366.78;4986550;28;4199;-71
2023/07/05 07:30:51;;;;;;;;;;;;;;;24.37;43.93;100365.72;4987286;28;4137;-71
2023/07/05 07:33:18;;;;;;;;;;;;;;;24.43;43.72;100360.81;4986630;28;4083;-71
2023/07/05 07:35:44;;;;;;;;;;;;;;;24.43;43.87;100371.66;4983267;28;4168;-70
2023/07/05 07:38:11;;;;;;;;;;;;;;;24.38;44.32;100370.09;4987821;28;4180;-69
2023/07/05 07:40:38;;;;;;;;;;;;;;;24.33;44.10;100371.44;4988676;28;4026;-70
2023/07/05 07:43:05;;;;;;;;;;;;;;;24.35;44.38;100380.91;4986074;28;4032;-69
2023/07/05 07:45:31;;;;;;;;;;;;;;;24.36;44.23;100372.94;4986023;28;4277;-69
2023/07/05 07:47:58;;;;;;;;;;;;;;;24.25;44.19;100374.88;4987395;28;4161;-69
2023/07/05 07:50:25;;;;;;;;;;;;;;;24.20;44.20;100374.03;4990719;28;4192;-70
2023/07/05 07:52:52;;;;;;;;;;;;;;;24.17;44.70;100387.00;4993068;28;4062;-69
2023/07/05 07:55:19;;;;;;;;;;;;;;;24.08;44.77;100396.91;4983106;28;4296;-69
2023/07/05 07:57:46;;;;;;;;;;;;;;;24.09;44.88;100386.78;4986350;28;4267;-68
2023/07/05 08:00:12;;;;;;;;;;;;;;;24.09;44.85;100386.78;5000955;28;4060;-70
2023/07/05 08:02:39;;;;;;;;;;;;;;;24.17;44.78;100394.94;4986476;28;4551;-69
2023/07/05 08:05:15;;;;;;;;;;;;;;;24.17;45.02;100398.56;4988097;28;4456;-64
2023/07/05 08:07:41;;;;;;;;;;;;;;;24.49;44.72;100406.53;4989192;28;4234;-66
2023/07/05 08:10:08;;;;;;;;;;;;;;;24.47;44.52;100415.19;4984367;28;4167;-72
2023/07/05 08:12:34;;;;;;;;;;;;;;;23.96;44.75;100419.72;4991658;28;4243;-69
2023/07/05 08:15:01;;;;;;;;;;;;;;;23.85;44.98;100415.88;4990789;28;4120;-70
2023/07/05 08:17:28;;;;;;;;;;;;;;;23.75;45.34;100427.16;4986152;28;4119;-69
2023/07/05 08:19:54;;;;;;;;;;;;;;;23.74;45.30;100405.44;4989881;28;6529;-70
2023/07/05 08:22:21;;;;;;;;;;;;;;;23.78;45.84;100400.53;4989285;28;3993;-67
2023/07/05 08:24:47;;;;;;;;;;;;;;;23.86;45.92;100405.03;4989447;28;4163;-66
2023/07/05 08:27:14;;;;;;;;;;;;;;;23.86;45.84;100399.25;4987033;28;3991;-68
2023/07/05 08:29:41;;;;;;;;;;;;;;;23.96;46.35;100402.38;4987108;28;4145;-69
2023/07/05 08:32:08;;;;;;;;;;;;;;;24.07;46.18;100400.47;4993176;28;4017;-76
2023/07/05 08:34:36;;;;;;;;;;;;;;;24.10;45.91;100394.06;4993760;28;4021;-72
2023/07/05 08:37:03;;;;;;;;;;;;;;;24.08;45.80;100396.19;4988455;28;4067;-76
2023/07/05 08:39:30;;;;;;;;;;;;;;;24.11;45.79;100391.91;4989918;28;4097;-76
2023/07/05 08:42:15;;;;;;;;;;;;;;;24.09;46.26;100395.47;4989965;28;4094;-70
2023/07/05 08:44:41;;;;;;;;;;;;;;;24.13;46.19;100404.25;5001229;28;4000;-71
2023/07/05 08:47:22;;;;;;;;;;;;;;;24.19;46.28;100394.97;4988373;28;4097;-70
2023/07/05 08:49:59;;;;;;;;;;;;;;;24.18;46.27;100393.50;4985931;28;4206;-72
2023/07/05 08:52:27;;;;;;;;;;;;;;;24.14;46.03;100396.31;5002044;28;4077;-77
2023/07/05 08:54:54;;;;;;;;;;;;;;;24.22;46.18;100388.56;4994537;28;4034;-72
2023/07/05 08:57:23;;;;;;;;;;;;;;;24.20;46.27;100385.59;4997396;28;3999;-73
2023/07/05 08:59:51;;;;;;;;;;;;;;;24.18;46.05;100393.50;5002834;28;4166;-71
2023/07/05 09:02:19;;;;;;;;;;;;;;;24.06;46.24;100391.06;4998511;28;4100;-74
2023/07/05 09:04:48;;;;;;;;;;;;;;;24.10;46.39;100388.28;4997475;28;4075;-73
2023/07/05 09:07:18;;;;;;;;;;;;;;;24.07;46.20;100386.75;4992724;28;4182;-71
2023/07/05 09:09:45;;;;;;;;;;;;;;;24.17;46.35;100392.78;4994612;28;4075;-69
2023/07/05 09:12:12;;;;;;;;;;;;;;;24.22;45.94;100400.13;4997024;28;4172;-71
2023/07/05 09:14:55;;;;;;;;;;;;;;;24.23;45.81;100390.03;4988592;28;4100;-72
2023/07/05 09:17:24;;;;;;;;;;;;;;;24.25;45.96;100401.63;5008006;28;4344;-69
2023/07/05 09:19:56;;;;;;;;;;;;;;;24.24;45.68;100396.56;5003002;28;3998;-70
2023/07/05 09:22:23;;;;;;;;;;;;;;;24.21;45.86;100387.09;5009221;28;4098;-69
2023/07/05 09:24:50;;;;;;;;;;;;;;;24.27;45.79;100389.38;4994941;28;4009;-65
2023/07/05 09:27:16;;;;;;;;;;;;;;;24.27;45.75;100391.53;4988148;28;4296;-64
2023/07/05 09:29:47;;;;;;;;;;;;;;;24.25;45.71;100392.94;4987788;28;4062;-66
2023/07/05 09:32:17;;;;;;;;;;;;;;;24.24;45.58;100385.72;5008578;28;4252;-69
2023/07/05 09:34:51;;;;;;;;;;;;;;;24.21;45.90;100387.09;4996443;28;3933;-68
2023/07/05 09:37:19;;;;;;;;;;;;;;;24.22;45.82;100387.81;4999582;28;5021;-69
2023/07/05 09:39:49;;;;;;;;;;;;;;;24.27;45.62;100388.66;4991680;28;4346;-70
2023/07/05 09:42:23;;;;;;;;;;;;;;;24.29;45.52;100385.81;5000508;28;4037;-69
2023/07/05 09:44:50;;;;;;;;;;;;;;;24.31;45.60;100383.69;4988216;28;4058;-69
2023/07/05 09:47:18;;;;;;;;;;;;;;;24.30;45.79;100372.78;4985042;28;4023;-70
2023/07/05 09:49:45;;;;;;;;;;;;;;;24.31;45.58;100377.19;4996734;28;4066;-68
2023/07/05 09:52:11;;;;;;;;;;;;;;;24.29;45.63;100377.13;4986591;28;4131;-68
2023/07/05 09:54:38;;;;;;;;;;;;;;;24.24;45.57;100379.91;4985516;28;4630;-69
2023/07/05 09:57:06;;;;;;;;;;;;;;;24.16;45.92;100373.94;4993667;28;4109;-68
2023/07/05 09:59:32;;;;;;;;;;;;;;;24.14;45.86;100376.78;4988984;28;4743;-68
2023/07/05 10:02:12;;;;;;;;;;;;;;;24.12;45.86;100367.31;4985938;28;4138;-69
2023/07/05 10:04:42;;;;;;;;;;;;;;;24.15;46.04;100369.59;4989098;28;4066;-69
2023/07/05 10:07:13;;;;;;;;;;;;;;;24.28;46.06;100366.97;4987665;28;4192;-68
2023/07/05 10:09:41;;;;;;;;;;;;;;;24.34;46.34;100358.44;4988031;28;4469;-69
2023/07/05 10:12:07;;;;;;;;;;;;;;;24.32;46.19;100362.00;4985715;28;4181;-65
2023/07/05 10:14:34;;;;;;;;;;;;;;;24.43;46.32;100365.84;4987083;28;4360;-65
2023/07/05 10:17:04;;;;;;;;;;;;;;;24.41;46.26;100362.91;4986955;28;4098;-64
2023/07/05 10:19:40;;;;;;;;;;;;;;;24.36;46.40;100355.56;4988581;28;4324;-63
2023/07/05 10:22:13;;;;;;;;;;;;;;;24.34;46.37;100355.53;4985431;28;5039;-65
2023/07/05 10:24:46;;;;;;;;;;;;;;;24.36;46.59;100338.22;4987025;28;4217;-65
2023/07/05 10:27:19;;;;;;;;;;;;;;;24.37;46.27;100354.16;4988409;28;4049;-65
2023/07/05 10:29:49;;;;;;;;;;;;;;;24.42;46.56;100347.75;4989558;28;4159;-72
2023/07/05 10:32:16;;;;;;;;;;;;;;;24.45;46.72;100345.66;4988714;28;4267;-72
2023/07/05 10:34:45;;;;;;;;;;;;;;;24.47;46.59;100348.63;4991412;28;4120;-69
2023/07/05 10:37:28;;;;;;;;;;;;;;;24.48;46.73;100338.50;4986911;28;4169;-68
2023/07/05 10:39:55;;;;;;;;;;;;;;;24.37;47.08;100340.44;4987719;28;4260;-68
2023/07/05 10:42:22;;;;;;;;;;;;;;;24.35;47.07;100354.84;4984892;28;4105;-68
2023/07/05 10:44:49;;;;;;;;;;;;;;;24.27;47.16;100351.03;4986444;28;4044;-69
2023/07/05 10:47:15;;;;;;;;;;;;;;;24.10;47.96;100347.78;4991573;28;4224;-71
2023/07/05 10:49:46;;;;;;;;;;;;;;;24.02;47.90;100347.59;4984233;28;4171;-69
2023/07/05 10:52:15;;;;;;;;;;;;;;;24.03;48.42;100343.28;4996885;28;4153;-69
2023/07/05 10:54:43;;;;;;;;;;;;;;;24.04;48.21;100350.53;4983722;28;4295;-69
2023/07/05 10:57:18;;;;;;;;;;;;;;;24.04;48.47;100362.09;4987662;28;4089;-69
2023/07/05 10:59:45;;;;;;;;;;;;;;;24.04;48.61;100353.41;5003283;28;4137;-70
2023/07/05 11:02:11;;;;;;;;;;;;;;;24.05;48.50;100349.09;5003277;28;4067;-71
2023/07/05 11:04:38;;;;;;;;;;;;;;;24.05;48.80;100352.00;4989316;28;4267;-71
2023/07/05 11:07:10;;;;;;;;;;;;;;;24.06;48.63;100362.16;4984004;28;5097;-71
2023/07/05 11:09:37;;;;;;;;;;;;;;;24.05;48.86;100354.88;4999845;28;4213;-71
2023/07/05 11:12:05;;;;;;;;;;;;;;;24.03;49.00;100358.47;4996668;28;4099;-71
2023/07/05 11:14:32;;;;;;;;;;;;;;;24.02;48.96;100359.16;4989361;28;3970;-71
2023/07/05 11:16:58;;;;;;;;;;;;;;;24.00;48.86;100351.16;4984302;28;4142;-70
2023/07/05 11:19:28;;;;;;;;;;;;;;;24.02;49.06;100353.38;4989951;28;4146;-75
2023/07/05 11:21:55;;;;;;;;;;;;;;;24.02;49.18;100342.53;4989328;28;4041;-70
2023/07/05 11:24:24;;;;;;;;;;;;;;;24.04;49.06;100344.75;4985615;28;4162;-71
2023/07/05 11:26:51;;;;;;;;;;;;;;;24.02;49.12;100354.09;4985904;28;4149;-70
2023/07/05 11:29:26;;;;;;;;;;;;;;;23.95;49.82;100346.72;4994874;28;4145;-72
2023/07/05 11:31:52;;;;;;;;;;;;;;;24.33;52.19;100357.69;4989936;28;4123;-70
2023/07/05 11:34:23;;;;;;;;;;;;;;;24.49;52.14;100351.56;4992528;28;4321;-75
2023/07/05 11:36:53;;;;;;;;;;;;;;;24.57;51.21;100353.88;4988877;28;4130;-74
2023/07/05 11:39:31;;;;;;;;;;;;;;;24.58;50.59;100353.19;4987987;28;4400;-71
2023/07/05 11:41:58;;;;;;;;;;;;;;;24.50;50.64;100358.81;4989777;28;4052;-71
2023/07/05 11:44:28;;;;;;;;;;;;;;;24.45;50.95;100348.53;4989687;28;4670;-69
2023/07/05 11:46:55;;;;;;;;;;;;;;;24.24;51.19;100356.06;4985818;28;4191;-66
2023/07/05 11:49:24;;;;;;;;;;;;;;;24.12;51.27;100356.50;4985528;28;4121;-66
2023/07/05 11:52:01;;;;;;;;;;;;;;;24.13;51.78;100363.03;4988921;28;4111;-67
2023/07/05 11:54:30;;;;;;;;;;;;;;;24.14;51.90;100367.38;5003076;28;4120;-68
2023/07/05 11:56:56;;;;;;;;;;;;;;;24.13;52.06;100369.53;4988872;28;4005;-70
2023/07/05 11:59:23;;;;;;;;;;;;;;;24.13;52.02;100357.25;5002101;28;4514;-69
2023/07/05 12:01:49;;;;;;;;;;;;;;;24.12;52.15;100365.19;4988272;28;4179;-69
2023/07/05 12:04:19;;;;;;;;;;;;;;;24.16;52.06;100362.38;4982809;28;4173;-69
2023/07/05 12:06:46;;;;;;;;;;;;;;;24.25;53.22;100354.63;4985018;28;4184;-69
2023/07/05 12:09:14;;;;;;;;;;;;;;;24.80;52.85;100349.28;4985416;28;4214;-65
2023/07/05 12:11:40;;;;;;;;;;;;;;;24.88;51.45;100350.19;4988264;28;4307;-66
2023/07/05 12:14:11;;;;;;;;;;;;;;;24.91;51.03;100342.25;4988628;28;4358;-68
2023/07/05 12:16:37;;;;;;;;;;;;;;;24.94;50.57;100343.03;4987484;28;4200;-68
2023/07/05 12:19:07;;;;;;;;;;;;;;;25.00;50.42;100343.16;4987702;28;3998;-68
2023/07/05 12:21:34;;;;;;;;;;;;;;;25.05;50.47;100345.41;4987271;28;4349;-69
2023/07/05 12:24:02;;;;;;;;;;;;;;;25.04;50.50;100332.38;4985669;28;4158;-69
2023/07/05 12:26:32;;;;;;;;;;;;;;;25.02;50.19;100341.03;4988164;28;4244;-69
2023/07/05 12:29:00;;;;;;;;;;;;;;;24.91;50.83;100330.69;4988665;28;4087;-69
2023/07/05 12:31:27;;;;;;;;;;;;;;;24.89;50.71;100327.75;4986560;28;4011;-69
2023/07/05 12:33:55;;;;;;;;;;;;;;;24.91;50.66;100327.06;4993080;28;4182;-68
2023/07/05 12:36:22;;;;;;;;;;;;;;;24.93;50.32;100321.31;4989535;28;4124;-66
2023/07/05 12:38:49;;;;;;;;;;;;;;;25.03;50.11;100325.09;4988667;28;4183;-66
2023/07/05 12:41:24;;;;;;;;;;;;;;;25.09;50.48;100327.41;4985296;28;4071;-68
2023/07/05 12:44:00;;;;;;;;;;;;;;;25.19;49.85;100318.19;4990816;28;4002;-68
2023/07/05 12:46:27;;;;;;;;;;;;;;;25.14;49.78;100320.22;4985428;28;4137;-68
2023/07/05 12:48:54;;;;;;;;;;;;;;;25.18;49.57;100316.69;4988109;28;4293;-68
2023/07/05 12:51:24;;;;;;;;;;;;;;;24.95;49.74;100324.97;4989974;28;4058;-69